sensor_id;sensor_type;location;lat;lon;timestamp;temperature;humidity
1992;DHT22;997;48.448;8.924;2022-07-11T03:00:23;13.30;99.90
1992;DHT22;997;48.448;8.924;2022-07-11T03:02:49;13.30;99.90
1992;DHT22;997;48.448;8.924;2022-07-11T03:05:15;13.30;99.90
1992;DHT22;997;48.448;8.924;2022-07-11T03:07:41;13.20;99.90
1992;DHT22;997;48.448;8.924;2022-07-11T03:10:07;13.10;99.90
1992;DHT22;997;48.448;8.924;2022-07-11T03:12:32;13.20;99.90
1992;DHT22;997;48.448;8.924;2022-07-11T03:14:58;13.20;99.90
1992;DHT22;997;48.448;8.924;2022-07-11T03:17:24;12.90;99.90
1992;DHT22;997;48.448;8.924;2022-07-11T03:19:50;13.00;99.90
1992;DHT22;997;48.448;8.924;2022-07-11T03:22:16;12.90;99.90
1992;DHT22;997;48.448;8.924;2022-07-11T03:24:42;12.90;99.90
1992;DHT22;997;48.448;8.924;2022-07-11T03:27:09;12.80;99.90
1992;DHT22;997;48.448;8.924;2022-07-11T03:29:35;12.80;99.90
1992;DHT22;997;48.448;8.924;2022-07-11T03:32:01;12.70;99.90
1992;DHT22;997;48.448;8.924;2022-07-11T03:34:27;12.70;99.90
1992;DHT22;997;48.448;8.924;2022-07-11T03:36:53;12.70;99.90
1992;DHT22;997;48.448;8.924;2022-07-11T03:39:20;12.60;99.90
1992;DHT22;997;48.448;8.924;2022-07-11T03:41:48;12.70;99.90
1992;DHT22;997;48.448;8.924;2022-07-11T03:44:14;12.70;99.90
1992;DHT22;997;48.448;8.924;2022-07-11T03:46:40;12.60;99.90
1992;DHT22;997;48.448;8.924;2022-07-11T03:49:05;12.60;99.90
1992;DHT22;997;48.448;8.924;2022-07-11T03:51:31;12.60;99.90
1992;DHT22;997;48.448;8.924;2022-07-11T03:53:57;12.50;99.90
1992;DHT22;997;48.448;8.924;2022-07-11T03:56:22;12.40;99.90
1992;DHT22;997;48.448;8.924;2022-07-11T03:58:49;12.40;99.90
1992;DHT22;997;48.448;8.924;2022-07-11T04:01:15;12.40;99.90
1992;DHT22;997;48.448;8.924;2022-07-11T04:03:41;12.40;99.90
1992;DHT22;997;48.448;8.924;2022-07-11T04:06:07;12.40;99.90
1992;DHT22;997;48.448;8.924;2022-07-11T04:08:33;12.30;99.90
1992;DHT22;997;48.448;8.924;2022-07-11T04:10:59;12.30;99.90
1992;DHT22;997;48.448;8.924;2022-07-11T04:13:25;12.10;99.90
1992;DHT22;997;48.448;8.924;2022-07-11T04:15:51;11.80;99.90
1992;DHT22;997;48.448;8.924;2022-07-11T04:18:16;11.70;99.90
1992;DHT22;997;48.448;8.924;2022-07-11T04:20:42;11.70;99.90
1992;DHT22;997;48.448;8.924;2022-07-11T04:23:08;11.70;99.90
1992;DHT22;997;48.448;8.924;2022-07-11T04:25:34;11.70;99.90
1992;DHT22;997;48.448;8.924;2022-07-11T04:28:00;11.80;99.90
1992;DHT22;997;48.448;8.924;2022-07-11T04:30:27;11.70;99.90
1992;DHT22;997;48.448;8.924;2022-07-11T04:32:55;11.80;99.90
1992;DHT22;997;48.448;8.924;2022-07-11T04:35:20;11.90;99.90
1992;DHT22;997;48.448;8.924;2022-07-11T04:37:48;11.80;99.90
1992;DHT22;997;48.448;8.924;2022-07-11T04:40:14;11.90;99.90
1992;DHT22;997;48.448;8.924;2022-07-11T04:42:40;11.90;99.90
1992;DHT22;997;48.448;8.924;2022-07-11T04:45:06;11.90;99.90
1992;DHT22;997;48.448;8.924;2022-07-11T04:47:32;11.90;99.90
1992;DHT22;997;48.448;8.924;2022-07-11T04:49:57;11.90;99.90
1992;DHT22;997;48.448;8.924;2022-07-11T04:52:23;11.90;99.90
1992;DHT22;997;48.448;8.924;2022-07-11T04:54:52;12.00;99.90
1992;DHT22;997;48.448;8.924;2022-07-11T04:57:18;12.10;99.90
1992;DHT22;997;48.448;8.924;2022-07-11T04:59:44;12.20;99.90
1992;DHT22;997;48.448;8.924;2022-07-11T05:02:10;12.20;99.90
1992;DHT22;997;48.448;8.924;2022-07-11T05:04:36;12.30;99.90
1992;DHT22;997;48.448;8.924;2022-07-11T05:07:01;12.30;99.90
1992;DHT22;997;48.448;8.924;2022-07-11T05:09:27;12.40;99.90
1992;DHT22;997;48.448;8.924;2022-07-11T05:11:53;12.50;99.90
1992;DHT22;997;48.448;8.924;2022-07-11T05:14:19;12.50;99.90
1992;DHT22;997;48.448;8.924;2022-07-11T05:16:44;12.50;99.90
1992;DHT22;997;48.448;8.924;2022-07-11T05:19:10;12.40;99.90
1992;DHT22;997;48.448;8.924;2022-07-11T05:21:36;12.40;99.90
1992;DHT22;997;48.448;8.924;2022-07-11T05:24:03;12.50;99.90
1992;DHT22;997;48.448;8.924;2022-07-11T05:26:28;12.50;99.90
1992;DHT22;997;48.448;8.924;2022-07-11T05:28:54;12.70;99.90
1992;DHT22;997;48.448;8.924;2022-07-11T05:31:20;12.80;99.90
1992;DHT22;997;48.448;8.924;2022-07-11T05:33:46;13.00;99.90
1992;DHT22;997;48.448;8.924;2022-07-11T05:36:12;13.10;99.90
1992;DHT22;997;48.448;8.924;2022-07-11T05:38:38;13.10;99.90
1992;DHT22;997;48.448;8.924;2022-07-11T05:41:04;13.10;99.90
1992;DHT22;997;48.448;8.924;2022-07-11T05:43:30;13.30;99.90
1992;DHT22;997;48.448;8.924;2022-07-11T05:45:55;13.50;99.90
1992;DHT22;997;48.448;8.924;2022-07-11T05:48:21;13.60;99.90
1992;DHT22;997;48.448;8.924;2022-07-11T05:50:46;13.70;99.90
1992;DHT22;997;48.448;8.924;2022-07-11T05:53:12;13.90;99.90
1992;DHT22;997;48.448;8.924;2022-07-11T05:55:38;14.00;99.90
1992;DHT22;997;48.448;8.924;2022-07-11T05:58:04;14.20;99.90
1992;DHT22;997;48.448;8.924;2022-07-11T06:00:30;14.40;99.90
1992;DHT22;997;48.448;8.924;2022-07-11T06:02:56;14.40;99.90
1992;DHT22;997;48.448;8.924;2022-07-11T06:05:21;14.50;99.90
1992;DHT22;997;48.448;8.924;2022-07-11T06:07:47;14.60;99.90
1992;DHT22;997;48.448;8.924;2022-07-11T06:10:31;14.70;99.90
1992;DHT22;997;48.448;8.924;2022-07-11T06:13:00;14.80;99.90
1992;DHT22;997;48.448;8.924;2022-07-11T06:15:25;14.80;99.90
1992;DHT22;997;48.448;8.924;2022-07-11T06:17:51;14.90;99.90
1992;DHT22;997;48.448;8.924;2022-07-11T06:20:18;15.10;99.90
1992;DHT22;997;48.448;8.924;2022-07-11T06:22:43;15.20;99.90
1992;DHT22;997;48.448;8.924;2022-07-11T06:25:09;15.40;99.90
1992;DHT22;997;48.448;8.924;2022-07-11T06:27:36;15.40;99.90
1992;DHT22;997;48.448;8.924;2022-07-11T06:30:02;15.40;99.90
1992;DHT22;997;48.448;8.924;2022-07-11T06:32:28;15.40;99.90
1992;DHT22;997;48.448;8.924;2022-07-11T06:34:54;15.60;99.90
1992;DHT22;997;48.448;8.924;2022-07-11T06:37:19;15.70;99.90
1992;DHT22;997;48.448;8.924;2022-07-11T06:39:45;15.80;99.90
1992;DHT22;997;48.448;8.924;2022-07-11T06:42:11;15.90;99.90
1992;DHT22;997;48.448;8.924;2022-07-11T06:44:36;16.10;99.90
1992;DHT22;997;48.448;8.924;2022-07-11T06:47:02;16.30;99.90
1992;DHT22;997;48.448;8.924;2022-07-11T06:49:28;16.50;99.90
1992;DHT22;997;48.448;8.924;2022-07-11T06:51:54;16.60;99.90
1992;DHT22;997;48.448;8.924;2022-07-11T06:54:19;16.70;99.90
1992;DHT22;997;48.448;8.924;2022-07-11T06:56:45;16.80;99.90
1992;DHT22;997;48.448;8.924;2022-07-11T06:59:10;16.90;99.90
1992;DHT22;997;48.448;8.924;2022-07-11T07:01:37;17.00;99.90
1992;DHT22;997;48.448;8.924;2022-07-11T07:04:03;17.10;99.90
1992;DHT22;997;48.448;8.924;2022-07-11T07:06:29;17.10;99.90
1992;DHT22;997;48.448;8.924;2022-07-11T07:08:54;17.20;99.90
1992;DHT22;997;48.448;8.924;2022-07-11T07:11:20;17.10;99.90
1992;DHT22;997;48.448;8.924;2022-07-11T07:13:46;17.00;99.90
1992;DHT22;997;48.448;8.924;2022-07-11T07:16:13;17.00;99.90
1992;DHT22;997;48.448;8.924;2022-07-11T07:18:39;17.00;99.90
1992;DHT22;997;48.448;8.924;2022-07-11T07:21:07;17.20;99.90
1992;DHT22;997;48.448;8.924;2022-07-11T07:23:32;17.50;99.90
1992;DHT22;997;48.448;8.924;2022-07-11T07:25:58;17.70;99.90
1992;DHT22;997;48.448;8.924;2022-07-11T07:28:24;17.80;99.90
1992;DHT22;997;48.448;8.924;2022-07-11T07:30:53;18.10;99.90
1992;DHT22;997;48.448;8.924;2022-07-11T07:33:20;18.20;99.90
1992;DHT22;997;48.448;8.924;2022-07-11T07:35:46;18.30;99.90
1992;DHT22;997;48.448;8.924;2022-07-11T07:38:11;18.50;99.90
1992;DHT22;997;48.448;8.924;2022-07-11T07:40:38;18.50;99.90
1992;DHT22;997;48.448;8.924;2022-07-11T07:43:04;18.60;99.90
1992;DHT22;997;48.448;8.924;2022-07-11T07:45:29;18.70;99.90
1992;DHT22;997;48.448;8.924;2022-07-11T07:47:55;18.90;99.90
1992;DHT22;997;48.448;8.924;2022-07-11T07:50:21;18.90;99.90
1992;DHT22;997;48.448;8.924;2022-07-11T07:52:48;18.90;99.90
1992;DHT22;997;48.448;8.924;2022-07-11T07:55:14;18.80;99.90
1992;DHT22;997;48.448;8.924;2022-07-11T07:57:39;18.60;99.90
1992;DHT22;997;48.448;8.924;2022-07-11T08:00:06;18.70;99.90
1992;DHT22;997;48.448;8.924;2022-07-11T08:02:50;18.90;99.90
1992;DHT22;997;48.448;8.924;2022-07-11T08:05:17;19.10;99.90
1992;DHT22;997;48.448;8.924;2022-07-11T08:07:43;19.20;99.90
1992;DHT22;997;48.448;8.924;2022-07-11T08:10:09;19.40;99.90
1992;DHT22;997;48.448;8.924;2022-07-11T08:12:35;19.50;99.90
1992;DHT22;997;48.448;8.924;2022-07-11T08:15:01;19.50;99.90
1992;DHT22;997;48.448;8.924;2022-07-11T08:17:27;19.60;99.90
1992;DHT22;997;48.448;8.924;2022-07-11T08:19:52;19.80;99.90
1992;DHT22;997;48.448;8.924;2022-07-11T08:22:18;19.90;99.90
1992;DHT22;997;48.448;8.924;2022-07-11T08:24:44;20.00;99.90
1992;DHT22;997;48.448;8.924;2022-07-11T08:27:09;20.20;99.90
1992;DHT22;997;48.448;8.924;2022-07-11T08:29:35;20.50;99.90
1992;DHT22;997;48.448;8.924;2022-07-11T08:32:01;20.50;99.90
1992;DHT22;997;48.448;8.924;2022-07-11T08:34:27;20.60;99.90
1992;DHT22;997;48.448;8.924;2022-07-11T08:36:52;20.60;99.90
1992;DHT22;997;48.448;8.924;2022-07-11T08:39:18;20.60;99.90
1992;DHT22;997;48.448;8.924;2022-07-11T08:41:44;20.80;99.90
1992;DHT22;997;48.448;8.924;2022-07-11T08:44:13;20.90;99.90
1992;DHT22;997;48.448;8.924;2022-07-11T08:46:40;21.00;99.90
1992;DHT22;997;48.448;8.924;2022-07-11T08:49:06;21.00;99.90
1992;DHT22;997;48.448;8.924;2022-07-11T08:51:33;21.10;99.90
1992;DHT22;997;48.448;8.924;2022-07-11T08:54:02;21.20;99.90
1992;DHT22;997;48.448;8.924;2022-07-11T08:56:27;21.30;99.90
1992;DHT22;997;48.448;8.924;2022-07-11T08:58:55;21.40;99.90
1992;DHT22;997;48.448;8.924;2022-07-11T09:01:30;21.50;99.90
1992;DHT22;997;48.448;8.924;2022-07-11T09:03:57;21.60;99.90
1992;DHT22;997;48.448;8.924;2022-07-11T09:06:23;21.60;99.90
1992;DHT22;997;48.448;8.924;2022-07-11T09:08:48;21.70;99.90
1992;DHT22;997;48.448;8.924;2022-07-11T09:11:14;21.60;99.90
1992;DHT22;997;48.448;8.924;2022-07-11T09:13:40;21.80;99.90
1992;DHT22;997;48.448;8.924;2022-07-11T09:16:08;21.80;99.90
1992;DHT22;997;48.448;8.924;2022-07-11T09:18:38;21.80;99.90
1992;DHT22;997;48.448;8.924;2022-07-11T09:21:10;21.90;99.90
1992;DHT22;997;48.448;8.924;2022-07-11T09:23:55;22.00;99.90
1992;DHT22;997;48.448;8.924;2022-07-11T09:26:45;22.10;99.90
1992;DHT22;997;48.448;8.924;2022-07-11T09:29:19;22.40;99.90
1992;DHT22;997;48.448;8.924;2022-07-11T09:31:46;22.60;99.90
1992;DHT22;997;48.448;8.924;2022-07-11T09:34:14;22.70;99.90
1992;DHT22;997;48.448;8.924;2022-07-11T09:36:45;22.50;99.90
1992;DHT22;997;48.448;8.924;2022-07-11T09:39:14;22.50;99.90
1992;DHT22;997;48.448;8.924;2022-07-11T09:41:41;22.60;99.90
1992;DHT22;997;48.448;8.924;2022-07-11T09:44:12;22.70;99.90
1992;DHT22;997;48.448;8.924;2022-07-11T09:46:39;22.60;99.90
1992;DHT22;997;48.448;8.924;2022-07-11T09:49:05;22.80;99.90
1992;DHT22;997;48.448;8.924;2022-07-11T09:51:33;22.90;99.90
1992;DHT22;997;48.448;8.924;2022-07-11T09:53:59;23.10;99.90
1992;DHT22;997;48.448;8.924;2022-07-11T09:56:26;22.90;99.90
1992;DHT22;997;48.448;8.924;2022-07-11T09:59:01;22.90;99.90
1992;DHT22;997;48.448;8.924;2022-07-11T10:01:28;23.20;99.90
1992;DHT22;997;48.448;8.924;2022-07-11T10:03:57;23.30;99.90
1992;DHT22;997;48.448;8.924;2022-07-11T10:06:24;23.40;99.90
1992;DHT22;997;48.448;8.924;2022-07-11T10:08:50;23.50;99.90
1992;DHT22;997;48.448;8.924;2022-07-11T10:11:18;23.60;99.90
1992;DHT22;997;48.448;8.924;2022-07-11T10:13:44;23.60;99.90
1992;DHT22;997;48.448;8.924;2022-07-11T10:16:58;23.50;99.90
1992;DHT22;997;48.448;8.924;2022-07-11T10:19:19;23.40;99.90
1992;DHT22;997;48.448;8.924;2022-07-11T10:22:09;23.50;99.90
1992;DHT22;997;48.448;8.924;2022-07-11T10:24:51;23.60;99.90
1992;DHT22;997;48.448;8.924;2022-07-11T10:27:34;23.60;99.90
1992;DHT22;997;48.448;8.924;2022-07-11T10:30:02;23.50;99.90
1992;DHT22;997;48.448;8.924;2022-07-11T10:32:28;23.10;99.90
1992;DHT22;997;48.448;8.924;2022-07-11T10:35:10;23.00;99.90
1992;DHT22;997;48.448;8.924;2022-07-11T10:37:47;22.90;99.90
1992;DHT22;997;48.448;8.924;2022-07-11T10:40:13;23.10;99.90
1992;DHT22;997;48.448;8.924;2022-07-11T10:42:41;23.10;99.90
1992;DHT22;997;48.448;8.924;2022-07-11T10:45:09;23.10;99.90
1992;DHT22;997;48.448;8.924;2022-07-11T10:47:42;23.00;99.90
1992;DHT22;997;48.448;8.924;2022-07-11T10:52:56;23.00;99.90
1992;DHT22;997;48.448;8.924;2022-07-11T10:55:36;23.30;99.90
1992;DHT22;997;48.448;8.924;2022-07-11T10:58:08;23.60;99.90
1992;DHT22;997;48.448;8.924;2022-07-11T11:00:36;23.80;99.90
1992;DHT22;997;48.448;8.924;2022-07-11T11:03:07;23.90;99.90
1992;DHT22;997;48.448;8.924;2022-07-11T11:05:44;24.00;99.90
1992;DHT22;997;48.448;8.924;2022-07-11T11:16:43;24.90;99.90
1992;DHT22;997;48.448;8.924;2022-07-11T11:22:12;25.30;99.90
1992;DHT22;997;48.448;8.924;2022-07-11T11:24:38;25.40;99.90
1992;DHT22;997;48.448;8.924;2022-07-11T11:27:04;25.50;99.90
1992;DHT22;997;48.448;8.924;2022-07-11T11:29:30;25.60;99.90
1992;DHT22;997;48.448;8.924;2022-07-11T11:31:58;25.50;99.90
1992;DHT22;997;48.448;8.924;2022-07-11T11:34:25;25.40;99.90
1992;DHT22;997;48.448;8.924;2022-07-11T11:36:53;25.40;99.90
1992;DHT22;997;48.448;8.924;2022-07-11T11:39:24;25.50;99.90
1992;DHT22;997;48.448;8.924;2022-07-11T11:41:51;25.60;99.90
1992;DHT22;997;48.448;8.924;2022-07-11T11:44:17;25.70;99.90
1992;DHT22;997;48.448;8.924;2022-07-11T11:46:42;25.80;99.90
1992;DHT22;997;48.448;8.924;2022-07-11T11:49:08;25.70;99.90
1992;DHT22;997;48.448;8.924;2022-07-11T11:51:34;25.60;99.90
1992;DHT22;997;48.448;8.924;2022-07-11T11:54:02;25.60;99.90
1992;DHT22;997;48.448;8.924;2022-07-11T11:56:33;25.30;99.90
1992;DHT22;997;48.448;8.924;2022-07-11T11:59:02;25.30;99.90
1992;DHT22;997;48.448;8.924;2022-07-11T12:01:30;25.30;99.90
1992;DHT22;997;48.448;8.924;2022-07-11T12:03:58;25.30;99.90
1992;DHT22;997;48.448;8.924;2022-07-11T12:06:32;25.30;99.90
1992;DHT22;997;48.448;8.924;2022-07-11T12:09:05;25.30;99.90
1992;DHT22;997;48.448;8.924;2022-07-11T12:11:31;25.40;99.90
1992;DHT22;997;48.448;8.924;2022-07-11T12:13:57;25.00;99.90
1992;DHT22;997;48.448;8.924;2022-07-11T12:16:24;24.80;99.90
1992;DHT22;997;48.448;8.924;2022-07-11T12:19:05;24.70;99.90
1992;DHT22;997;48.448;8.924;2022-07-11T12:21:35;24.90;99.90
1992;DHT22;997;48.448;8.924;2022-07-11T12:24:04;25.00;99.90
1992;DHT22;997;48.448;8.924;2022-07-11T12:26:33;25.30;99.90
1992;DHT22;997;48.448;8.924;2022-07-11T12:29:05;25.60;99.90
1992;DHT22;997;48.448;8.924;2022-07-11T12:31:43;25.70;99.90
1992;DHT22;997;48.448;8.924;2022-07-11T12:34:09;25.90;99.90
1992;DHT22;997;48.448;8.924;2022-07-11T12:36:35;26.00;99.90
1992;DHT22;997;48.448;8.924;2022-07-11T12:39:00;26.00;99.90
1992;DHT22;997;48.448;8.924;2022-07-11T12:41:28;26.20;99.90
1992;DHT22;997;48.448;8.924;2022-07-11T12:43:55;26.30;99.90
1992;DHT22;997;48.448;8.924;2022-07-11T12:46:40;26.40;99.90
1992;DHT22;997;48.448;8.924;2022-07-11T12:49:10;26.30;99.90
1992;DHT22;997;48.448;8.924;2022-07-11T12:51:38;26.50;99.90
1992;DHT22;997;48.448;8.924;2022-07-11T12:54:09;26.70;99.90
1992;DHT22;997;48.448;8.924;2022-07-11T12:56:36;26.90;99.90
1992;DHT22;997;48.448;8.924;2022-07-11T12:59:03;27.00;99.90
1992;DHT22;997;48.448;8.924;2022-07-11T13:01:30;27.10;99.90
1992;DHT22;997;48.448;8.924;2022-07-11T13:03:56;27.20;99.90
1992;DHT22;997;48.448;8.924;2022-07-11T13:06:22;27.30;99.90
1992;DHT22;997;48.448;8.924;2022-07-11T13:09:07;27.40;99.90
1992;DHT22;997;48.448;8.924;2022-07-11T13:11:34;27.30;99.90
1992;DHT22;997;48.448;8.924;2022-07-11T13:14:00;27.40;99.90
1992;DHT22;997;48.448;8.924;2022-07-11T13:16:26;27.60;99.90
1992;DHT22;997;48.448;8.924;2022-07-11T13:18:51;27.50;99.90
1992;DHT22;997;48.448;8.924;2022-07-11T13:21:18;27.30;99.90
1992;DHT22;997;48.448;8.924;2022-07-11T13:23:44;27.30;99.90
1992;DHT22;997;48.448;8.924;2022-07-11T13:26:10;27.40;99.90
1992;DHT22;997;48.448;8.924;2022-07-11T13:28:37;27.50;99.90
1992;DHT22;997;48.448;8.924;2022-07-11T13:31:03;27.60;99.90
1992;DHT22;997;48.448;8.924;2022-07-11T13:33:32;27.60;99.90
1992;DHT22;997;48.448;8.924;2022-07-11T13:35:58;27.70;99.90
1992;DHT22;997;48.448;8.924;2022-07-11T13:38:24;27.80;99.90
1992;DHT22;997;48.448;8.924;2022-07-11T13:40:49;28.00;99.90
1992;DHT22;997;48.448;8.924;2022-07-11T13:43:15;28.20;99.90
1992;DHT22;997;48.448;8.924;2022-07-11T13:45:42;28.40;99.90
1992;DHT22;997;48.448;8.924;2022-07-11T13:48:11;28.30;98.70
1992;DHT22;997;48.448;8.924;2022-07-11T13:50:37;28.30;98.50
1992;DHT22;997;48.448;8.924;2022-07-11T13:53:03;28.50;98.60
1992;DHT22;997;48.448;8.924;2022-07-11T13:55:28;28.60;96.90
1992;DHT22;997;48.448;8.924;2022-07-11T13:57:58;28.70;97.70
1992;DHT22;997;48.448;8.924;2022-07-11T14:00:25;29.00;97.00
1992;DHT22;997;48.448;8.924;2022-07-11T14:02:51;29.30;96.80
1992;DHT22;997;48.448;8.924;2022-07-11T14:05:18;29.50;95.70
1992;DHT22;997;48.448;8.924;2022-07-11T14:07:47;29.80;95.40
1992;DHT22;997;48.448;8.924;2022-07-11T14:10:13;30.00;95.00
1992;DHT22;997;48.448;8.924;2022-07-11T14:12:39;30.20;93.80
1992;DHT22;997;48.448;8.924;2022-07-11T14:15:05;30.40;93.50
1992;DHT22;997;48.448;8.924;2022-07-11T14:17:34;30.30;91.70
1992;DHT22;997;48.448;8.924;2022-07-11T14:19:59;30.20;92.00
1992;DHT22;997;48.448;8.924;2022-07-11T14:22:25;29.70;91.90
1992;DHT22;997;48.448;8.924;2022-07-11T14:24:51;29.20;92.50
1992;DHT22;997;48.448;8.924;2022-07-11T14:27:16;28.20;93.20
1992;DHT22;997;48.448;8.924;2022-07-11T14:29:43;28.00;93.90
1992;DHT22;997;48.448;8.924;2022-07-11T14:32:11;28.10;95.20
1992;DHT22;997;48.448;8.924;2022-07-11T14:34:37;28.30;95.70
1992;DHT22;997;48.448;8.924;2022-07-11T14:37:03;28.80;95.30
1992;DHT22;997;48.448;8.924;2022-07-11T14:39:29;29.00;93.80
1992;DHT22;997;48.448;8.924;2022-07-11T14:41:55;29.00;93.90
1992;DHT22;997;48.448;8.924;2022-07-11T14:44:21;28.80;93.40
1992;DHT22;997;48.448;8.924;2022-07-11T14:46:46;28.60;92.90
1992;DHT22;997;48.448;8.924;2022-07-11T14:49:12;28.60;93.20
1992;DHT22;997;48.448;8.924;2022-07-11T14:51:38;28.40;93.70
1992;DHT22;997;48.448;8.924;2022-07-11T14:54:05;28.10;93.80
1992;DHT22;997;48.448;8.924;2022-07-11T14:56:30;28.00;95.50
1992;DHT22;997;48.448;8.924;2022-07-11T14:58:57;28.60;95.60
1992;DHT22;997;48.448;8.924;2022-07-11T15:01:23;28.50;94.00
1992;DHT22;997;48.448;8.924;2022-07-11T15:03:49;28.50;94.20
1992;DHT22;997;48.448;8.924;2022-07-11T15:06:16;28.40;93.90
1992;DHT22;997;48.448;8.924;2022-07-11T15:08:42;28.10;93.60
1992;DHT22;997;48.448;8.924;2022-07-11T15:11:27;27.70;94.30
1992;DHT22;997;48.448;8.924;2022-07-11T15:14:12;27.40;94.60
1992;DHT22;997;48.448;8.924;2022-07-11T15:16:39;26.80;95.60
1992;DHT22;997;48.448;8.924;2022-07-11T15:19:06;26.70;96.80
1992;DHT22;997;48.448;8.924;2022-07-11T15:21:32;27.60;96.60
1992;DHT22;997;48.448;8.924;2022-07-11T15:23:59;28.20;96.50
1992;DHT22;997;48.448;8.924;2022-07-11T15:26:25;29.00;94.60
1992;DHT22;997;48.448;8.924;2022-07-11T15:28:52;29.40;94.70
1992;DHT22;997;48.448;8.924;2022-07-11T15:31:18;30.00;93.70
1992;DHT22;997;48.448;8.924;2022-07-11T15:33:44;30.20;92.90
1992;DHT22;997;48.448;8.924;2022-07-11T15:36:11;30.40;92.70
1992;DHT22;997;48.448;8.924;2022-07-11T15:38:37;30.60;91.70
1992;DHT22;997;48.448;8.924;2022-07-11T15:41:02;30.60;91.80
1992;DHT22;997;48.448;8.924;2022-07-11T15:43:32;30.40;91.20
1992;DHT22;997;48.448;8.924;2022-07-11T15:45:58;29.80;91.00
1992;DHT22;997;48.448;8.924;2022-07-11T15:48:27;29.20;92.20
1992;DHT22;997;48.448;8.924;2022-07-11T15:50:52;28.90;92.10
1992;DHT22;997;48.448;8.924;2022-07-11T15:53:18;28.90;93.00
1992;DHT22;997;48.448;8.924;2022-07-11T15:55:44;29.70;93.00
1992;DHT22;997;48.448;8.924;2022-07-11T15:58:12;30.00;91.80
1992;DHT22;997;48.448;8.924;2022-07-11T16:00:38;30.50;91.30
1992;DHT22;997;48.448;8.924;2022-07-11T16:03:04;31.00;91.00
1992;DHT22;997;48.448;8.924;2022-07-11T16:05:30;31.40;90.20
1992;DHT22;997;48.448;8.924;2022-07-11T16:07:56;31.50;88.50
1992;DHT22;997;48.448;8.924;2022-07-11T16:10:22;31.80;88.00
1992;DHT22;997;48.448;8.924;2022-07-11T16:12:48;32.10;86.10
1992;DHT22;997;48.448;8.924;2022-07-11T16:15:14;32.30;85.90
1992;DHT22;997;48.448;8.924;2022-07-11T16:17:39;32.50;85.40
1992;DHT22;997;48.448;8.924;2022-07-11T16:20:06;32.70;83.10
1992;DHT22;997;48.448;8.924;2022-07-11T16:22:32;32.30;84.30
1992;DHT22;997;48.448;8.924;2022-07-11T16:24:58;32.30;85.20
1992;DHT22;997;48.448;8.924;2022-07-11T16:27:25;32.30;84.40
1992;DHT22;997;48.448;8.924;2022-07-11T16:29:51;32.30;82.30
1992;DHT22;997;48.448;8.924;2022-07-11T16:32:17;32.70;82.30
1992;DHT22;997;48.448;8.924;2022-07-11T16:34:42;32.80;81.80
1992;DHT22;997;48.448;8.924;2022-07-11T16:37:08;32.90;80.50
1992;DHT22;997;48.448;8.924;2022-07-11T16:39:34;33.10;80.00
1992;DHT22;997;48.448;8.924;2022-07-11T16:42:19;33.30;79.10
1992;DHT22;997;48.448;8.924;2022-07-11T16:45:03;33.40;77.80
1992;DHT22;997;48.448;8.924;2022-07-11T16:47:29;33.50;77.50
1992;DHT22;997;48.448;8.924;2022-07-11T16:49:55;33.00;76.90
1992;DHT22;997;48.448;8.924;2022-07-11T16:52:21;32.70;78.20
1992;DHT22;997;48.448;8.924;2022-07-11T16:54:47;32.60;78.10
1992;DHT22;997;48.448;8.924;2022-07-11T16:57:13;32.70;77.90
1992;DHT22;997;48.448;8.924;2022-07-11T16:59:40;33.30;77.00
1992;DHT22;997;48.448;8.924;2022-07-11T17:02:06;33.60;75.80
1992;DHT22;997;48.448;8.924;2022-07-11T17:04:33;34.10;75.00
1992;DHT22;997;48.448;8.924;2022-07-11T17:06:59;34.30;73.70
1992;DHT22;997;48.448;8.924;2022-07-11T17:09:24;34.70;71.90
1992;DHT22;997;48.448;8.924;2022-07-11T17:11:50;33.90;70.90
1992;DHT22;997;48.448;8.924;2022-07-11T17:14:16;34.10;71.60
1992;DHT22;997;48.448;8.924;2022-07-11T17:16:42;34.30;71.20
1992;DHT22;997;48.448;8.924;2022-07-11T17:19:07;34.50;71.50
1992;DHT22;997;48.448;8.924;2022-07-11T17:21:33;35.00;69.60
1992;DHT22;997;48.448;8.924;2022-07-11T17:24:00;34.90;69.10
1992;DHT22;997;48.448;8.924;2022-07-11T17:26:26;34.90;68.40
1992;DHT22;997;48.448;8.924;2022-07-11T17:28:53;34.70;67.60
1992;DHT22;997;48.448;8.924;2022-07-11T17:31:19;33.90;68.70
1992;DHT22;997;48.448;8.924;2022-07-11T17:33:45;33.60;69.10
1992;DHT22;997;48.448;8.924;2022-07-11T17:36:11;33.30;70.50
1992;DHT22;997;48.448;8.924;2022-07-11T17:38:37;33.40;70.30
1992;DHT22;997;48.448;8.924;2022-07-11T17:41:05;33.30;69.40
1992;DHT22;997;48.448;8.924;2022-07-11T17:43:31;33.40;70.00
1992;DHT22;997;48.448;8.924;2022-07-11T17:45:57;33.10;70.10
1992;DHT22;997;48.448;8.924;2022-07-11T17:48:23;33.00;70.50
1992;DHT22;997;48.448;8.924;2022-07-11T17:50:52;32.40;70.90
1992;DHT22;997;48.448;8.924;2022-07-11T17:53:18;31.50;72.30
1992;DHT22;997;48.448;8.924;2022-07-11T17:55:44;30.70;74.60
1992;DHT22;997;48.448;8.924;2022-07-11T17:58:09;29.60;77.00
1992;DHT22;997;48.448;8.924;2022-07-11T18:00:35;29.00;79.00
1992;DHT22;997;48.448;8.924;2022-07-11T18:03:01;28.40;80.80
1992;DHT22;997;48.448;8.924;2022-07-11T18:05:27;27.70;82.10
1992;DHT22;997;48.448;8.924;2022-07-11T18:07:53;27.20;84.60
1992;DHT22;997;48.448;8.924;2022-07-11T18:10:19;26.90;86.30
1992;DHT22;997;48.448;8.924;2022-07-11T18:12:45;26.60;87.10
1992;DHT22;997;48.448;8.924;2022-07-11T18:15:13;26.50;88.30
1992;DHT22;997;48.448;8.924;2022-07-11T18:17:39;26.20;89.00
1992;DHT22;997;48.448;8.924;2022-07-11T18:20:06;26.00;90.00
1992;DHT22;997;48.448;8.924;2022-07-11T18:22:33;25.70;90.60
1992;DHT22;997;48.448;8.924;2022-07-11T18:24:59;25.50;91.20
1992;DHT22;997;48.448;8.924;2022-07-11T18:27:27;25.20;91.90
1992;DHT22;997;48.448;8.924;2022-07-11T18:29:52;25.00;92.60
1992;DHT22;997;48.448;8.924;2022-07-11T18:32:18;24.80;93.20
1992;DHT22;997;48.448;8.924;2022-07-11T18:34:44;24.60;93.70
1992;DHT22;997;48.448;8.924;2022-07-11T18:37:10;24.40;94.60
1992;DHT22;997;48.448;8.924;2022-07-11T18:39:36;24.20;95.30
1992;DHT22;997;48.448;8.924;2022-07-11T18:42:20;24.00;95.80
1992;DHT22;997;48.448;8.924;2022-07-11T18:44:46;24.00;96.40
1992;DHT22;997;48.448;8.924;2022-07-11T18:47:12;23.90;96.70
1992;DHT22;997;48.448;8.924;2022-07-11T18:49:38;23.80;97.40
1992;DHT22;997;48.448;8.924;2022-07-11T18:52:04;23.80;97.90
1992;DHT22;997;48.448;8.924;2022-07-11T18:54:30;23.70;98.40
1992;DHT22;997;48.448;8.924;2022-07-11T18:56:57;23.70;98.80
1992;DHT22;997;48.448;8.924;2022-07-11T18:59:23;23.70;99.20
1992;DHT22;997;48.448;8.924;2022-07-11T19:01:49;23.60;99.50
1992;DHT22;997;48.448;8.924;2022-07-11T19:04:16;23.70;99.60
1992;DHT22;997;48.448;8.924;2022-07-11T19:06:42;23.70;99.90
1992;DHT22;997;48.448;8.924;2022-07-11T19:09:08;23.70;99.90
1992;DHT22;997;48.448;8.924;2022-07-11T19:11:34;23.70;99.90
1992;DHT22;997;48.448;8.924;2022-07-11T19:14:00;23.70;99.90
1992;DHT22;997;48.448;8.924;2022-07-11T19:16:26;23.70;99.90
1992;DHT22;997;48.448;8.924;2022-07-11T19:18:52;23.70;99.90
1992;DHT22;997;48.448;8.924;2022-07-11T19:21:18;23.60;99.90
1992;DHT22;997;48.448;8.924;2022-07-11T19:23:44;23.70;99.90
1992;DHT22;997;48.448;8.924;2022-07-11T19:26:11;23.50;99.90
1992;DHT22;997;48.448;8.924;2022-07-11T19:28:40;23.60;99.90
1992;DHT22;997;48.448;8.924;2022-07-11T19:31:07;23.50;99.90